Time;durP1;ratioP1;P1;durP2;ratioP2;P2;SDS_P1;SDS_P2;PMS_P1;PMS_P2;Temp;Humidity;BMP_temperature;BMP_pressure;BME280_temperature;BME280_humidity;BME280_pressure;Samples;Min_cycle;Max_cycle;Signal;HPM_P1;HPM_P2
2022/04/18 00:01:55;;;;;;;1.00;1.00;;;18.50;30.60;;;;;;5170402;27;46818;-13
2022/04/18 00:04:21;;;;;;;1.02;0.90;;;18.50;30.70;;;;;;5170899;27;47271;-12
2022/04/18 00:06:48;;;;;;;0.77;0.73;;;18.50;30.80;;;;;;5170184;27;48206;-11
2022/04/18 00:09:15;;;;;;;0.80;0.80;;;18.40;30.80;;;;;;5170154;27;46907;-21
2022/04/18 00:11:42;;;;;;;1.38;0.80;;;18.40;30.80;;;;;;5170229;27;46879;-12
2022/04/18 00:14:09;;;;;;;1.60;1.00;;;18.40;30.70;;;;;;5170676;27;47194;-12
2022/04/18 00:16:36;;;;;;;0.80;0.80;;;18.40;30.70;;;;;;5170129;27;47933;-20
2022/04/18 00:19:04;;;;;;;0.75;0.75;;;18.40;30.80;;;;;;5170096;27;47434;-21
2022/04/18 00:21:31;;;;;;;1.00;0.90;;;18.40;30.80;;;;;;5169770;27;47024;-12
2022/04/18 00:23:58;;;;;;;0.90;0.90;;;18.30;30.60;;;;;;5170430;27;46866;-12
2022/04/18 00:26:24;;;;;;;1.08;0.93;;;18.30;30.70;;;;;;5169722;27;48184;-20
2022/04/18 00:28:51;;;;;;;0.95;0.90;;;18.30;30.70;;;;;;5169754;27;46825;-20
2022/04/18 00:31:18;;;;;;;1.05;0.95;;;18.30;30.80;;;;;;5170104;27;46742;-12
2022/04/18 00:33:44;;;;;;;1.05;0.95;;;18.30;30.80;;;;;;5170258;27;46943;-20
2022/04/18 00:36:12;;;;;;;2.72;0.82;;;18.30;30.80;;;;;;5169446;27;48764;-21
2022/04/18 00:38:40;;;;;;;0.95;0.93;;;18.20;30.70;;;;;;5169955;27;46898;-21
2022/04/18 00:41:07;;;;;;;1.00;1.00;;;18.20;31.10;;;;;;5168933;27;46776;-20
2022/04/18 00:43:40;;;;;;;0.80;0.80;;;18.20;30.80;;;;;;5169994;27;47293;-21
2022/04/18 00:46:07;;;;;;;1.02;0.90;;;18.20;30.80;;;;;;5169501;27;47091;-21
2022/04/18 00:48:34;;;;;;;1.10;1.05;;;18.20;30.80;;;;;;5169885;27;46773;-21
2022/04/18 00:51:01;;;;;;;0.85;0.80;;;18.20;30.70;;;;;;5169462;27;46795;-12
2022/04/18 00:53:29;;;;;;;0.80;0.80;;;18.20;30.80;;;;;;5169896;27;47265;-20
2022/04/18 00:55:55;;;;;;;1.08;0.98;;;18.10;30.80;;;;;;5169210;27;48103;-21
2022/04/18 00:58:22;;;;;;;1.10;1.08;;;18.10;30.80;;;;;;5169632;27;46754;-20
2022/04/18 01:00:49;;;;;;;1.67;0.88;;;18.10;30.80;;;;;;5169273;27;46806;-11
2022/04/18 01:03:15;;;;;;;1.00;0.85;;;18.10;30.90;;;;;;5169452;27;46842;-12
2022/04/18 01:05:42;;;;;;;0.90;0.90;;;18.10;30.80;;;;;;5168909;27;48030;-11
2022/04/18 01:08:09;;;;;;;2.40;0.98;;;18.10;30.90;;;;;;5169242;27;46904;-20
2022/04/18 01:10:37;;;;;;;0.80;0.80;;;18.00;30.80;;;;;;5169304;27;46838;-21
2022/04/18 01:13:04;;;;;;;0.75;0.75;;;18.00;30.90;;;;;;5169341;27;46932;-12
2022/04/18 01:15:31;;;;;;;1.48;0.90;;;18.00;30.80;;;;;;5169141;27;48893;-12
2022/04/18 01:17:58;;;;;;;1.13;0.90;;;18.00;30.90;;;;;;5169336;27;46848;-21
2022/04/18 01:20:25;;;;;;;0.85;0.85;;;18.00;30.80;;;;;;5169063;27;46929;-12
2022/04/18 01:22:53;;;;;;;0.82;0.82;;;18.00;31.00;;;;;;5169029;27;46938;-21
2022/04/18 01:30:52;;;;;;;1.48;0.95;;;18.00;30.80;;;;;;5166639;27;47064;-12
2022/04/18 01:33:19;;;;;;;0.90;0.90;;;17.90;30.80;;;;;;5169282;27;46859;-21
2022/04/18 01:35:46;;;;;;;0.95;0.95;;;17.90;30.90;;;;;;5168750;27;46956;-11
2022/04/18 01:38:14;;;;;;;1.60;0.93;;;17.90;30.90;;;;;;5169014;27;46920;-21
2022/04/18 01:40:41;;;;;;;0.93;0.90;;;17.80;30.90;;;;;;5168197;27;47006;-21
2022/04/18 01:43:07;;;;;;;1.20;1.10;;;17.80;30.90;;;;;;5168874;27;46819;-11
2022/04/18 01:45:34;;;;;;;0.95;0.93;;;17.80;30.80;;;;;;5168761;27;48096;-21
2022/04/18 01:48:01;;;;;;;0.80;0.80;;;17.80;31.00;;;;;;5168891;27;46987;-12
2022/04/18 01:50:28;;;;;;;1.02;0.90;;;17.80;30.90;;;;;;5168658;27;47218;-21
2022/04/18 01:52:54;;;;;;;0.80;0.80;;;17.70;30.80;;;;;;5169089;27;46850;-20
2022/04/18 01:55:22;;;;;;;0.75;0.75;;;17.70;30.90;;;;;;5168707;27;47814;-21
2022/04/18 01:57:49;;;;;;;0.80;0.80;;;17.70;30.90;;;;;;5168869;27;47004;-20
2022/04/18 02:00:16;;;;;;;0.80;0.80;;;17.70;31.00;;;;;;5168707;27;46828;-20
2022/04/18 02:02:43;;;;;;;1.20;0.80;;;17.70;30.90;;;;;;5168776;27;47001;-21
2022/04/18 02:05:09;;;;;;;0.80;0.80;;;17.70;31.60;;;;;;5168366;27;48151;-21
2022/04/18 02:07:36;;;;;;;1.23;0.90;;;17.70;31.00;;;;;;5167767;27;46819;-12
2022/04/18 02:10:03;;;;;;;0.82;0.82;;;17.70;31.00;;;;;;5168552;27;46870;-12
2022/04/18 02:12:32;;;;;;;0.70;0.70;;;17.60;31.00;;;;;;5168586;27;47306;-12
2022/04/18 02:14:58;;;;;;;0.80;0.80;;;17.60;31.00;;;;;;5168088;27;48892;-12
2022/04/18 02:17:25;;;;;;;0.80;0.80;;;17.60;31.10;;;;;;5168326;27;47182;-21
2022/04/18 02:19:52;;;;;;;0.70;0.70;;;17.60;31.10;;;;;;5168196;27;46905;-20
2022/04/18 02:22:19;;;;;;;0.88;0.88;;;17.60;31.20;;;;;;5168170;27;46829;-21
2022/04/18 02:24:46;;;;;;;0.77;0.77;;;17.60;31.20;;;;;;5168030;27;47953;-20
2022/04/18 02:27:12;;;;;;;1.10;1.00;;;17.60;31.20;;;;;;5168289;27;47304;-12
2022/04/18 02:29:40;;;;;;;0.88;0.75;;;17.50;31.20;;;;;;5168385;27;46872;-21
2022/04/18 02:34:53;;;;;;;0.70;0.70;;;17.50;31.20;;;;;;5165373;27;46928;-20
2022/04/18 02:37:19;;;;;;;0.80;0.80;;;17.50;31.20;;;;;;5167765;27;46881;-20
2022/04/18 02:39:46;;;;;;;0.80;0.80;;;17.50;31.20;;;;;;5168423;27;46871;-12
2022/04/18 02:42:13;;;;;;;1.08;1.00;;;17.50;31.20;;;;;;5167950;27;47043;-21
2022/04/18 02:44:42;;;;;;;0.77;0.77;;;17.40;31.20;;;;;;5168019;27;48103;-21
2022/04/18 02:47:08;;;;;;;0.85;0.85;;;17.40;31.20;;;;;;5167979;27;46946;-11
2022/04/18 02:49:37;;;;;;;0.70;0.70;;;17.40;31.20;;;;;;5168170;27;46871;-21
2022/04/18 02:52:04;;;;;;;0.90;0.90;;;17.40;31.30;;;;;;5168150;27;46801;-11
2022/04/18 02:54:31;;;;;;;0.70;0.70;;;17.40;31.30;;;;;;5167733;27;46802;-20
2022/04/18 02:56:57;;;;;;;1.75;0.70;;;17.40;31.30;;;;;;5167369;27;46828;-20
2022/04/18 02:59:24;;;;;;;1.00;0.80;;;17.30;31.30;;;;;;5167658;27;46881;-21
2022/04/18 03:01:52;;;;;;;0.95;0.90;;;17.30;31.40;;;;;;5167917;27;47309;-20
2022/04/18 03:04:19;;;;;;;1.05;0.95;;;17.30;31.40;;;;;;5167601;27;47853;-12
2022/04/18 03:06:46;;;;;;;0.88;0.80;;;17.30;31.30;;;;;;5167274;27;46998;-21
2022/04/18 03:09:15;;;;;;;1.27;0.80;;;17.30;31.40;;;;;;5167862;27;46800;-12
2022/04/18 03:11:41;;;;;;;0.85;0.70;;;17.30;31.40;;;;;;5167722;27;47101;-11
2022/04/18 03:14:08;;;;;;;0.80;0.73;;;17.30;31.40;;;;;;5167690;27;49036;-20
2022/04/18 03:16:35;;;;;;;0.88;0.80;;;17.20;31.50;;;;;;5167546;27;46916;-12
2022/04/18 03:19:03;;;;;;;0.77;0.77;;;17.20;31.50;;;;;;5168923;27;46819;-21
2022/04/18 03:21:29;;;;;;;0.70;0.70;;;17.20;31.50;;;;;;5171265;27;46897;-11
2022/04/18 03:23:56;;;;;;;0.80;0.80;;;17.20;31.50;;;;;;5171054;27;48221;-20
2022/04/18 03:26:23;;;;;;;0.85;0.85;;;17.20;31.60;;;;;;5170828;27;47022;-21
2022/04/18 03:28:50;;;;;;;0.80;0.80;;;17.10;31.50;;;;;;5170971;27;46745;-20
2022/04/18 03:31:17;;;;;;;0.82;0.82;;;17.10;31.50;;;;;;5170731;27;47059;-21
2022/04/18 03:33:44;;;;;;;0.80;0.80;;;17.10;31.60;;;;;;5170967;27;49057;-20
2022/04/18 03:41:54;;;;;;;0.70;0.70;;;17.10;31.70;;;;;;5125521;27;47105;-19
2022/04/18 03:44:21;;;;;;;0.82;0.77;;;17.10;31.70;;;;;;5150757;27;47074;-10
2022/04/18 03:46:47;;;;;;;0.98;0.98;;;17.00;31.60;;;;;;5170814;27;47447;-10
2022/04/18 03:49:14;;;;;;;0.85;0.85;;;17.00;31.60;;;;;;5170872;27;46911;-18
2022/04/18 03:51:42;;;;;;;0.93;0.93;;;17.00;31.70;;;;;;5170766;27;46959;-18
2022/04/18 03:54:09;;;;;;;0.75;0.75;;;17.00;31.80;;;;;;5170765;27;48188;-18
2022/04/18 03:56:36;;;;;;;0.90;0.80;;;17.00;31.80;;;;;;5170175;27;46804;-19
2022/04/18 03:59:02;;;;;;;0.80;0.75;;;16.90;32.40;;;;;;5170835;27;46821;-18
2022/04/18 04:01:29;;;;;;;0.85;0.80;;;16.90;31.80;;;;;;5170734;27;47277;-9
2022/04/18 04:03:56;;;;;;;0.95;0.85;;;16.90;31.80;;;;;;5170303;27;47831;-10
2022/04/18 04:06:22;;;;;;;1.40;0.75;;;16.90;31.70;;;;;;5170501;27;47283;-19
2022/04/18 04:08:50;;;;;;;1.10;1.00;;;16.90;31.80;;;;;;5170333;27;46766;-10
2022/04/18 04:11:17;;;;;;;0.80;0.80;;;16.90;31.90;;;;;;5170445;27;46913;-19
2022/04/18 04:13:44;;;;;;;0.82;0.80;;;16.80;31.80;;;;;;5170092;27;48171;-18
2022/04/18 04:16:10;;;;;;;0.68;0.68;;;16.90;31.90;;;;;;5169892;27;47414;-9
2022/04/18 04:18:37;;;;;;;0.70;0.70;;;16.80;31.80;;;;;;5170162;27;46996;-18
2022/04/18 04:21:04;;;;;;;0.80;0.80;;;16.80;32.60;;;;;;5170370;27;46900;-19
2022/04/18 04:23:30;;;;;;;0.80;0.80;;;16.80;32.00;;;;;;5169854;27;48164;-9
2022/04/18 04:25:58;;;;;;;0.80;0.80;;;16.80;31.90;;;;;;5169903;27;47340;-18
2022/04/18 04:28:25;;;;;;;0.90;0.90;;;16.70;31.90;;;;;;5170248;27;46808;-19
2022/04/18 04:30:52;;;;;;;0.82;0.82;;;16.70;32.60;;;;;;5169566;27;46883;-10
2022/04/18 04:33:19;;;;;;;0.80;0.80;;;16.70;32.00;;;;;;5170072;27;47922;-18
2022/04/18 04:35:45;;;;;;;0.80;0.80;;;16.70;32.00;;;;;;5169853;27;47390;-19
2022/04/18 04:38:12;;;;;;;0.70;0.70;;;16.70;32.00;;;;;;5169919;27;46919;-10
2022/04/18 04:40:39;;;;;;;0.95;0.85;;;16.70;32.10;;;;;;5169855;27;46892;-9
2022/04/18 04:43:07;;;;;;;1.08;1.05;;;16.60;32.00;;;;;;5169757;27;48911;-19
2022/04/18 04:45:34;;;;;;;0.70;0.70;;;16.60;32.10;;;;;;5169757;27;46931;-10
2022/04/18 04:48:00;;;;;;;1.02;0.90;;;16.60;32.10;;;;;;5169623;27;46792;-9
2022/04/18 04:50:27;;;;;;;0.80;0.80;;;16.60;32.10;;;;;;5169773;27;46892;-9
2022/04/18 04:52:54;;;;;;;1.10;1.02;;;16.60;32.10;;;;;;5169623;27;49070;-18
2022/04/18 04:55:20;;;;;;;1.13;1.00;;;16.60;32.20;;;;;;5169600;27;47029;-9
2022/04/18 04:57:47;;;;;;;1.10;1.10;;;16.50;32.10;;;;;;5169399;27;46995;-19
2022/04/18 05:00:15;;;;;;;1.40;1.20;;;16.50;32.10;;;;;;5169726;27;46891;-19
2022/04/18 05:02:42;;;;;;;1.20;1.10;;;16.50;32.20;;;;;;5169466;27;47921;-10
2022/04/18 05:05:09;;;;;;;1.15;1.00;;;16.50;32.20;;;;;;5169148;27;46942;-10
2022/04/18 05:07:36;;;;;;;1.60;1.17;;;16.50;32.30;;;;;;5169616;27;46825;-10
2022/04/18 05:10:03;;;;;;;0.95;0.90;;;16.40;32.20;;;;;;5169395;27;46927;-19
2022/04/18 05:12:31;;;;;;;0.90;0.90;;;16.40;32.30;;;;;;5169150;27;47992;-9
2022/04/18 05:15:02;;;;;;;0.80;0.80;;;16.40;32.20;;;;;;5169080;27;47562;-19
2022/04/18 05:17:30;;;;;;;0.98;0.95;;;16.40;32.40;;;;;;5169092;27;46923;-19
2022/04/18 05:19:56;;;;;;;1.10;1.00;;;16.40;32.30;;;;;;5169495;27;46889;-9
2022/04/18 05:22:23;;;;;;;1.40;1.10;;;16.40;32.30;;;;;;5169048;27;47917;-19
2022/04/18 05:24:51;;;;;;;0.88;0.82;;;16.40;32.30;;;;;;5169075;27;46929;-19
2022/04/18 05:27:18;;;;;;;0.80;0.80;;;16.40;32.40;;;;;;5169168;27;46847;-19
2022/04/18 05:29:45;;;;;;;1.02;0.95;;;16.40;32.30;;;;;;5169333;27;47097;-10
2022/04/18 05:32:11;;;;;;;1.48;1.02;;;16.30;32.40;;;;;;5168515;27;48070;-19
2022/04/18 05:34:40;;;;;;;1.17;1.00;;;16.30;32.40;;;;;;5168769;27;47422;-10
2022/04/18 05:37:07;;;;;;;0.98;0.90;;;16.30;32.40;;;;;;5169017;27;46822;-19
2022/04/18 05:39:33;;;;;;;1.75;1.00;;;16.30;32.40;;;;;;5169146;27;47327;-9
2022/04/18 05:42:00;;;;;;;1.30;1.20;;;16.30;32.40;;;;;;5167071;27;49059;-19
2022/04/18 05:44:27;;;;;;;1.05;1.05;;;16.30;32.50;;;;;;5168542;27;46865;-10
2022/04/18 05:46:54;;;;;;;1.00;1.00;;;16.30;32.40;;;;;;5168790;27;46801;-10
2022/04/18 05:49:20;;;;;;;1.27;1.08;;;16.30;32.50;;;;;;5168852;27;46901;-19
2022/04/18 05:51:48;;;;;;;1.42;0.98;;;16.30;32.60;;;;;;5168451;27;49023;-19
2022/04/18 05:54:15;;;;;;;1.08;1.02;;;16.30;32.50;;;;;;5168728;27;46901;-10
2022/04/18 05:56:42;;;;;;;1.10;1.00;;;16.30;32.50;;;;;;5168187;27;46787;-10
2022/04/18 05:59:08;;;;;;;1.00;1.00;;;16.30;32.50;;;;;;5169020;27;46948;-18
2022/04/18 06:01:35;;;;;;;1.13;1.02;;;16.30;32.50;;;;;;5168503;27;48829;-10
2022/04/18 06:04:02;;;;;;;0.80;0.80;;;16.20;32.50;;;;;;5168631;27;47490;-18
2022/04/18 06:06:29;;;;;;;1.02;1.02;;;16.30;32.50;;;;;;5168628;27;46897;-18
2022/04/18 06:08:57;;;;;;;1.38;1.27;;;16.20;32.50;;;;;;5168830;27;46929;-10
2022/04/18 06:11:24;;;;;;;0.95;0.95;;;16.20;32.60;;;;;;5168365;27;47054;-9
2022/04/18 06:13:51;;;;;;;0.95;0.93;;;16.20;32.60;;;;;;5168363;27;46896;-19
2022/04/18 06:16:17;;;;;;;0.90;0.85;;;16.20;32.60;;;;;;5168286;27;46873;-9
2022/04/18 06:18:44;;;;;;;1.60;1.20;;;16.30;32.60;;;;;;5168441;27;47241;-10
2022/04/18 06:21:11;;;;;;;1.30;0.95;;;16.20;32.60;;;;;;5168211;27;47028;-19
2022/04/18 06:23:37;;;;;;;0.90;0.90;;;16.20;32.70;;;;;;5167967;27;46872;-18
2022/04/18 06:26:05;;;;;;;1.27;1.00;;;16.20;32.70;;;;;;5168090;27;46798;-10
2022/04/18 06:28:32;;;;;;;1.20;1.10;;;16.20;32.60;;;;;;5168598;27;47319;-10
2022/04/18 06:30:59;;;;;;;0.70;0.70;;;16.30;32.60;;;;;;5167887;27;47053;-10
2022/04/18 06:33:25;;;;;;;1.10;1.00;;;16.30;32.60;;;;;;5168225;27;46741;-10
2022/04/18 06:35:52;;;;;;;1.00;1.00;;;16.30;32.60;;;;;;5168022;27;46891;-9
2022/04/18 06:38:19;;;;;;;0.95;0.82;;;16.30;32.60;;;;;;5168413;27;46948;-19
2022/04/18 06:40:45;;;;;;;1.05;0.98;;;16.30;32.60;;;;;;5167399;27;48032;-18
2022/04/18 06:43:16;;;;;;;0.70;0.70;;;16.30;32.60;;;;;;5168199;27;46906;-10
2022/04/18 06:45:43;;;;;;;0.80;0.80;;;16.30;32.60;;;;;;5167851;27;46889;-10
2022/04/18 06:48:09;;;;;;;0.90;0.90;;;16.30;32.50;;;;;;5168007;27;46894;-18
2022/04/18 06:50:36;;;;;;;0.90;0.90;;;16.30;32.60;;;;;;5167385;27;49089;-19
2022/04/18 06:53:03;;;;;;;0.90;0.90;;;16.30;32.60;;;;;;5169418;27;46880;-18
2022/04/18 06:56:58;;;;;;;1.00;0.90;;;16.40;33.30;;;;;;5171726;27;46920;-9
2022/04/18 06:58:17;;;;;;;1.90;0.90;;;16.40;32.60;;;;;;5171602;27;46878;-10
2022/04/18 07:00:44;;;;;;;1.98;1.27;;;16.40;32.60;;;;;;5171100;27;49091;-19
2022/04/18 07:03:10;;;;;;;1.13;1.02;;;16.40;32.60;;;;;;5171288;27;47053;-10
2022/04/18 07:05:37;;;;;;;0.90;0.90;;;16.40;32.60;;;;;;5171187;27;46796;-10
2022/04/18 07:08:04;;;;;;;1.10;1.00;;;16.40;32.60;;;;;;5171621;27;46908;-10
2022/04/18 07:10:31;;;;;;;0.82;0.82;;;16.40;32.60;;;;;;5171196;27;48032;-10
2022/04/18 07:12:57;;;;;;;1.02;0.93;;;16.40;32.60;;;;;;5171394;27;47448;-18
2022/04/18 07:15:26;;;;;;;1.25;1.15;;;16.40;32.60;;;;;;5171439;27;46961;-18
2022/04/18 07:17:52;;;;;;;1.52;1.02;;;16.40;32.60;;;;;;5171373;27;47254;-18
2022/04/18 07:20:19;;;;;;;0.88;0.88;;;16.40;32.70;;;;;;5170843;27;47066;-19
2022/04/18 07:22:46;;;;;;;0.80;0.65;;;16.40;32.60;;;;;;5171340;27;46941;-10
2022/04/18 07:25:13;;;;;;;0.80;0.80;;;16.50;32.70;;;;;;5170967;27;46775;-18
2022/04/18 07:27:39;;;;;;;0.80;0.80;;;16.50;32.80;;;;;;5171374;27;46969;-10
2022/04/18 07:30:08;;;;;;;0.85;0.85;;;16.40;32.70;;;;;;5171182;27;48879;-10
2022/04/18 07:32:40;;;;;;;0.80;0.80;;;16.50;32.80;;;;;;5170731;27;47319;-10
2022/04/18 07:35:08;;;;;;;0.80;0.80;;;16.50;32.80;;;;;;5171330;27;47065;-19
2022/04/18 07:37:35;;;;;;;2.05;1.17;;;16.50;32.80;;;;;;5170897;27;47369;-9
2022/04/18 07:40:02;;;;;;;0.98;0.98;;;16.50;32.80;;;;;;5170906;27;46989;-10
2022/04/18 07:42:29;;;;;;;0.77;0.77;;;16.50;32.80;;;;;;5170374;27;46976;-19
2022/04/18 07:44:55;;;;;;;1.67;1.00;;;16.50;32.90;;;;;;5170762;27;46894;-10
2022/04/18 07:47:22;;;;;;;0.85;0.85;;;16.50;32.80;;;;;;5170600;27;46866;-20
2022/04/18 07:49:50;;;;;;;1.27;0.90;;;16.50;32.80;;;;;;5170555;27;48235;-20
2022/04/18 07:52:17;;;;;;;0.73;0.73;;;16.50;32.90;;;;;;5170641;27;47004;-12
2022/04/18 07:54:43;;;;;;;0.88;0.88;;;16.60;32.90;;;;;;5170676;27;46810;-12
2022/04/18 07:57:10;;;;;;;0.98;0.90;;;16.50;32.80;;;;;;5170875;27;47276;-21
2022/04/18 07:59:37;;;;;;;1.40;0.93;;;16.50;33.00;;;;;;5170272;27;49053;-12
2022/04/18 08:02:08;;;;;;;0.95;0.88;;;16.50;32.90;;;;;;5170425;27;47033;-11
2022/04/18 08:04:38;;;;;;;1.13;1.00;;;16.60;33.00;;;;;;5169660;27;46908;-20
2022/04/18 08:07:07;;;;;;;0.70;0.70;;;16.60;33.00;;;;;;5170467;27;46889;-11
2022/04/18 08:09:34;;;;;;;1.75;0.88;;;16.60;33.00;;;;;;5170232;27;48163;-20
2022/04/18 08:12:00;;;;;;;0.80;0.80;;;16.60;33.00;;;;;;5170104;27;46799;-21
2022/04/18 08:14:27;;;;;;;0.70;0.70;;;16.60;33.10;;;;;;5170111;27;47004;-21
2022/04/18 08:16:54;;;;;;;0.70;0.70;;;16.70;33.00;;;;;;5170365;27;46995;-12
2022/04/18 08:19:20;;;;;;;0.70;0.70;;;16.70;33.10;;;;;;5170038;27;46950;-11
2022/04/18 08:21:47;;;;;;;1.30;0.95;;;16.70;33.00;;;;;;5169847;27;47072;-21
2022/04/18 08:24:15;;;;;;;1.05;0.98;;;16.70;33.00;;;;;;5170110;27;46802;-12
2022/04/18 08:26:45;;;;;;;0.80;0.80;;;16.70;33.00;;;;;;5170192;27;47183;-19
2022/04/18 08:29:12;;;;;;;1.10;0.80;;;16.80;33.10;;;;;;5170131;27;49068;-20
2022/04/18 08:31:39;;;;;;;0.90;0.90;;;16.80;33.00;;;;;;5169545;27;47432;-20
2022/04/18 08:34:05;;;;;;;0.98;0.85;;;16.80;33.00;;;;;;5169807;27;46837;-12
2022/04/18 08:36:33;;;;;;;0.70;0.70;;;16.90;33.00;;;;;;5170081;27;46922;-21
2022/04/18 08:39:00;;;;;;;0.93;0.90;;;16.90;33.00;;;;;;5169944;27;47909;-12
2022/04/18 08:41:32;;;;;;;0.90;0.90;;;16.90;32.90;;;;;;5169150;27;47476;-11
2022/04/18 08:43:58;;;;;;;0.90;0.90;;;16.90;32.90;;;;;;5169598;27;46836;-20
2022/04/18 08:46:25;;;;;;;1.05;0.90;;;17.00;32.90;;;;;;5169739;27;46992;-21
2022/04/18 08:54:23;;;;;;;0.70;0.70;;;17.00;32.80;;;;;;5166904;27;47016;-18
2022/04/18 08:56:51;;;;;;;0.88;0.88;;;17.00;32.80;;;;;;5169306;27;46905;-11
2022/04/18 08:59:18;;;;;;;0.82;0.82;;;17.10;32.90;;;;;;5169515;27;49068;-21
2022/04/18 09:01:50;;;;;;;0.88;0.88;;;17.10;32.90;;;;;;5169210;27;46942;-21
2022/04/18 09:04:17;;;;;;;1.20;1.00;;;17.10;32.80;;;;;;5169857;27;46832;-20
2022/04/18 09:06:44;;;;;;;0.95;0.90;;;17.10;32.80;;;;;;5169448;27;46936;-12
2022/04/18 09:09:10;;;;;;;0.93;0.93;;;17.20;32.80;;;;;;5169435;27;47967;-12
2022/04/18 09:11:37;;;;;;;0.70;0.70;;;17.20;32.80;;;;;;5169002;27;46843;-21
2022/04/18 09:14:06;;;;;;;0.80;0.80;;;17.20;32.80;;;;;;5169019;27;46811;-12
2022/04/18 09:16:32;;;;;;;0.80;0.80;;;17.20;32.70;;;;;;5169267;27;46887;-11
2022/04/18 09:19:09;;;;;;;0.70;0.70;;;17.30;32.70;;;;;;5169031;27;47817;-12
2022/04/18 09:21:35;;;;;;;0.77;0.77;;;17.30;32.70;;;;;;5168852;27;46989;-20
2022/04/18 09:24:02;;;;;;;0.80;0.80;;;17.30;32.60;;;;;;5168951;27;46867;-12
2022/04/18 09:26:29;;;;;;;1.02;1.02;;;17.30;32.60;;;;;;5168808;27;46831;-21
2022/04/18 09:29:03;;;;;;;1.00;1.00;;;17.30;32.60;;;;;;5169057;27;49067;-20
2022/04/18 09:31:38;;;;;;;0.90;0.90;;;17.40;32.70;;;;;;5168971;27;46819;-11
2022/04/18 09:34:05;;;;;;;0.98;0.98;;;17.40;32.70;;;;;;5169056;27;46877;-20
2022/04/18 09:36:32;;;;;;;0.82;0.82;;;17.40;32.60;;;;;;5167904;27;46884;-21
2022/04/18 09:38:59;;;;;;;1.00;1.00;;;17.50;32.50;;;;;;5168163;27;47085;-20
2022/04/18 09:41:27;;;;;;;1.02;0.93;;;17.50;32.60;;;;;;5167357;27;47070;-12
2022/04/18 09:43:54;;;;;;;0.80;0.80;;;17.50;32.50;;;;;;5168786;27;46959;-12
2022/04/18 09:46:21;;;;;;;1.13;1.00;;;17.60;32.50;;;;;;5168662;27;46904;-20
2022/04/18 09:48:50;;;;;;;0.82;0.82;;;17.60;32.50;;;;;;5149662;27;46941;-12
2022/04/18 09:51:18;;;;;;;0.90;0.88;;;17.60;32.40;;;;;;5168398;27;46901;-11
2022/04/18 09:53:46;;;;;;;0.82;0.82;;;17.70;32.40;;;;;;5168467;27;46819;-20
2022/04/18 09:56:17;;;;;;;0.70;0.70;;;17.70;32.50;;;;;;5168523;27;47239;-20
2022/04/18 09:58:44;;;;;;;0.80;0.75;;;17.70;32.50;;;;;;5168493;27;48890;-21
2022/04/18 10:01:11;;;;;;;1.10;0.90;;;17.70;32.40;;;;;;5168003;27;46828;-21
2022/04/18 10:03:38;;;;;;;0.80;0.80;;;17.80;32.50;;;;;;5168710;27;46858;-12
2022/04/18 10:06:07;;;;;;;0.80;0.80;;;17.80;32.40;;;;;;5168197;27;47236;-21
2022/04/18 10:08:34;;;;;;;1.02;1.00;;;17.90;32.50;;;;;;5168367;27;46818;-12
2022/04/18 10:11:01;;;;;;;0.98;0.88;;;17.90;32.50;;;;;;5167958;27;47170;-21
2022/04/18 10:13:29;;;;;;;1.20;0.80;;;17.90;32.50;;;;;;5168370;27;47140;-20
2022/04/18 10:15:55;;;;;;;0.90;0.90;;;17.90;32.50;;;;;;5168490;27;46997;-21
2022/04/18 10:18:23;;;;;;;0.77;0.77;;;18.00;32.50;;;;;;5168032;27;48095;-21
2022/04/18 10:21:10;;;;;;;1.42;1.08;;;18.00;32.40;;;;;;5168179;27;46989;-12
2022/04/18 10:23:49;;;;;;;0.80;0.80;;;18.00;32.30;;;;;;5168159;27;46804;-21
2022/04/18 10:26:33;;;;;;;0.88;0.88;;;18.10;32.40;;;;;;5168009;27;46909;-20
2022/04/18 10:29:03;;;;;;;0.85;0.85;;;18.10;32.40;;;;;;5171067;27;49079;-12
2022/04/18 10:31:32;;;;;;;0.98;0.98;;;18.10;32.30;;;;;;5171939;27;47189;-12
2022/04/18 10:33:59;;;;;;;0.90;0.90;;;18.20;32.40;;;;;;5172002;27;46742;-11
2022/04/18 10:36:27;;;;;;;1.15;0.90;;;18.30;32.30;;;;;;5171983;27;47307;-20
2022/04/18 10:38:55;;;;;;;0.88;0.88;;;18.30;32.40;;;;;;5171839;27;48117;-21
2022/04/18 10:41:35;;;;;;;0.77;0.77;;;18.30;32.30;;;;;;5171162;27;47435;-12
2022/04/18 10:44:05;;;;;;;1.10;0.82;;;18.40;32.20;;;;;;5171625;27;46858;-12
2022/04/18 10:46:31;;;;;;;0.90;0.90;;;18.40;32.10;;;;;;5171282;27;47152;-12
2022/04/18 10:48:59;;;;;;;0.75;0.75;;;18.50;32.20;;;;;;5171717;27;47327;-12
2022/04/18 10:51:30;;;;;;;0.80;0.80;;;18.50;32.10;;;;;;5171260;27;47093;-21
2022/04/18 10:54:11;;;;;;;1.30;0.88;;;18.50;32.10;;;;;;5171381;27;46737;-12
2022/04/18 10:56:48;;;;;;;1.05;1.00;;;18.60;32.00;;;;;;5171313;27;46902;-21
2022/04/18 10:59:15;;;;;;;1.08;1.00;;;18.60;31.90;;;;;;5171769;27;49065;-12
2022/04/18 11:01:42;;;;;;;0.88;0.88;;;18.70;31.80;;;;;;5170860;27;47401;-12
2022/04/18 11:04:09;;;;;;;0.70;0.70;;;18.80;31.80;;;;;;5171590;27;46850;-20
2022/04/18 11:07:02;;;;;;;0.77;0.77;;;18.80;31.70;;;;;;5171114;27;46859;-12
2022/04/18 11:09:29;;;;;;;0.90;0.90;;;18.90;31.60;;;;;;5171188;27;46959;-12
2022/04/18 11:12:06;;;;;;;0.80;0.80;;;19.00;31.60;;;;;;5171054;27;46831;-12
2022/04/18 11:14:48;;;;;;;0.73;0.73;;;19.10;31.60;;;;;;5171329;27;46920;-20
2022/04/18 11:17:26;;;;;;;0.80;0.73;;;19.10;31.50;;;;;;5171251;27;47069;-20
2022/04/18 11:19:53;;;;;;;0.80;0.80;;;19.20;31.40;;;;;;5171185;27;47929;-21
2022/04/18 11:22:22;;;;;;;0.80;0.80;;;19.30;31.30;;;;;;5171156;27;47244;-20
2022/04/18 11:24:59;;;;;;;1.08;0.90;;;19.40;31.30;;;;;;5170886;27;46807;-21
2022/04/18 11:27:32;;;;;;;0.70;0.70;;;19.40;31.20;;;;;;5170724;27;47115;-21
2022/04/18 11:29:59;;;;;;;0.70;0.70;;;19.50;31.10;;;;;;5171082;27;47913;-21
2022/04/18 11:32:27;;;;;;;1.67;0.90;;;19.60;31.10;;;;;;5170521;27;47065;-21
2022/04/18 11:34:54;;;;;;;0.80;0.80;;;19.60;31.00;;;;;;5171002;27;46888;-13
2022/04/18 11:37:26;;;;;;;0.80;0.80;;;19.70;31.00;;;;;;5171079;27;46839;-21
2022/04/18 11:39:54;;;;;;;1.20;0.90;;;19.70;30.90;;;;;;5169144;27;47870;-12
2022/04/18 11:42:21;;;;;;;1.02;1.02;;;19.80;30.80;;;;;;5170457;27;46884;-12
2022/04/18 11:44:48;;;;;;;0.77;0.77;;;19.90;30.80;;;;;;5170857;27;46809;-21
2022/04/18 11:47:16;;;;;;;0.90;0.90;;;19.90;30.70;;;;;;5170026;27;47302;-20
2022/04/18 11:49:45;;;;;;;1.05;0.82;;;20.00;30.70;;;;;;5169765;27;48306;-12
2022/04/18 11:52:18;;;;;;;1.20;0.90;;;20.10;30.60;;;;;;5170103;27;46865;-20
2022/04/18 11:55:00;;;;;;;0.75;0.75;;;20.10;30.50;;;;;;5170803;27;46805;-21
2022/04/18 11:57:27;;;;;;;0.80;0.80;;;20.20;30.50;;;;;;5170736;27;46775;-21
2022/04/18 11:59:54;;;;;;;0.80;0.80;;;20.30;30.50;;;;;;5170413;27;48175;-13
2022/04/18 12:07:57;;;;;;;0.90;0.90;;;20.50;30.30;;;;;;5167672;27;46887;-20
2022/04/18 12:10:26;;;;;;;0.85;0.85;;;20.50;30.20;;;;;;5170015;27;46923;-12
2022/04/18 12:12:53;;;;;;;1.02;0.93;;;20.60;30.10;;;;;;5170077;27;47387;-21
2022/04/18 12:15:22;;;;;;;0.95;0.95;;;20.60;30.00;;;;;;5170024;27;46913;-12
2022/04/18 12:17:48;;;;;;;0.77;0.77;;;20.70;30.00;;;;;;5170541;27;46936;-21
2022/04/18 12:20:22;;;;;;;2.60;1.05;;;20.80;30.00;;;;;;5169446;27;49026;-21
2022/04/18 12:22:51;;;;;;;3.05;1.00;;;20.80;32.30;;;;;;5169677;27;47116;-12
2022/04/18 12:25:22;;;;;;;1.33;1.23;;;20.90;32.40;;;;;;5169800;27;46786;-13
2022/04/18 12:27:50;;;;;;;4.00;1.20;;;21.00;32.80;;;;;;5170307;27;47117;-12
2022/04/18 12:30:17;;;;;;;1.77;1.10;;;21.10;33.00;;;;;;5169824;27;49045;-21
2022/04/18 12:32:47;;;;;;;2.35;1.00;;;21.30;32.70;;;;;;5169433;27;47095;-22
2022/04/18 12:35:14;;;;;;;1.58;1.05;;;21.30;31.30;;;;;;5169982;27;46855;-21
2022/04/18 12:37:46;;;;;;;1.00;1.00;;;21.50;31.00;;;;;;5169821;27;46916;-21
2022/04/18 12:40:14;;;;;;;0.80;0.80;;;21.60;30.50;;;;;;5169499;27;48881;-19
2022/04/18 12:42:41;;;;;;;2.50;1.17;;;21.70;30.50;;;;;;5169523;27;46793;-21
2022/04/18 12:45:10;;;;;;;1.02;0.90;;;21.80;30.20;;;;;;5169639;27;46903;-21
2022/04/18 12:47:36;;;;;;;2.67;1.00;;;22.00;30.40;;;;;;5169837;27;47245;-13
2022/04/18 12:50:08;;;;;;;1.13;0.95;;;22.10;30.20;;;;;;5168906;27;47891;-21
2022/04/18 12:52:35;;;;;;;3.22;1.05;;;22.10;30.10;;;;;;5168550;27;46971;-21
2022/04/18 12:55:08;;;;;;;1.05;0.90;;;22.20;30.00;;;;;;5164798;27;46912;-21
2022/04/18 12:57:35;;;;;;;1.23;1.13;;;22.30;30.40;;;;;;5167270;27;47184;-21
2022/04/18 13:00:16;;;;;;;1.02;0.90;;;22.40;29.90;;;;;;5169091;27;48076;-14
2022/04/18 13:02:56;;;;;;;1.13;1.02;;;22.60;29.80;;;;;;5168840;27;46859;-21
2022/04/18 13:05:25;;;;;;;2.25;0.98;;;22.70;29.70;;;;;;5169053;27;46884;-13
2022/04/18 13:07:52;;;;;;;1.73;1.00;;;22.70;29.60;;;;;;5168414;27;47306;-13
2022/04/18 13:10:27;;;;;;;1.13;0.80;;;22.80;29.50;;;;;;5168992;27;48615;-21
2022/04/18 13:13:02;;;;;;;1.00;1.00;;;22.90;29.50;;;;;;5169047;27;47538;-13
2022/04/18 13:15:30;;;;;;;2.47;1.20;;;23.00;29.50;;;;;;5169485;27;46806;-13
2022/04/18 13:17:58;;;;;;;0.88;0.88;;;23.00;29.40;;;;;;5169439;27;47153;-22